createdAt,value
2018-05-14T00:02:04.353Z,92.80
2018-05-14T00:04:32.732Z,93.00
2018-05-14T00:07:01.466Z,92.80
2018-05-14T00:09:29.092Z,93.00
2018-05-14T00:11:56.689Z,92.90
2018-05-14T00:14:24.399Z,93.00
2018-05-14T00:16:51.951Z,93.00
2018-05-14T00:19:20.291Z,92.70
2018-05-14T00:21:47.857Z,92.60
2018-05-14T00:24:15.449Z,92.80
2018-05-14T00:26:43.812Z,93.30
2018-05-14T00:29:12.173Z,93.60
2018-05-14T00:31:39.799Z,93.60
2018-05-14T00:34:07.434Z,93.60
2018-05-14T00:36:35.822Z,93.50
2018-05-14T00:39:03.474Z,93.50
2018-05-14T00:41:31.913Z,93.80
2018-05-14T00:43:59.499Z,93.80
2018-05-14T00:46:27.078Z,93.90
2018-05-14T00:48:54.689Z,94.00
2018-05-14T00:51:22.277Z,94.00
2018-05-14T00:53:50.677Z,93.60
2018-05-14T00:56:19.028Z,93.80
2018-05-14T00:58:46.613Z,94.10
2018-05-14T01:01:14.959Z,94.10
2018-05-14T01:03:42.607Z,94.00
2018-05-14T01:06:10.173Z,94.10
2018-05-14T01:08:37.727Z,94.30
2018-05-14T01:11:05.368Z,93.90
2018-05-14T01:13:33.699Z,94.10
2018-05-14T01:16:02.087Z,94.20
2018-05-14T01:18:30.487Z,94.20
2018-05-14T01:20:58.125Z,94.20
2018-05-14T01:23:25.723Z,93.70
2018-05-14T01:25:53.328Z,93.80
2018-05-14T01:28:20.966Z,93.70
2018-05-14T01:30:48.559Z,93.90
2018-05-14T01:33:16.159Z,93.50
2018-05-14T01:35:43.779Z,93.40
2018-05-14T01:38:11.401Z,92.70
2018-05-14T01:40:39.099Z,92.80
2018-05-14T01:43:06.693Z,93.10
2018-05-14T01:45:34.307Z,93.10
2018-05-14T01:48:01.931Z,93.20
2018-05-14T01:50:29.517Z,92.90
2018-05-14T01:52:57.113Z,92.90
2018-05-14T01:55:24.729Z,93.00
2018-05-14T01:57:52.329Z,93.10
2018-05-14T02:00:20.711Z,93.10
2018-05-14T02:02:48.352Z,93.30
2018-05-14T02:05:15.906Z,93.40
2018-05-14T02:07:43.551Z,93.40
2018-05-14T02:10:11.151Z,93.40
2018-05-14T02:12:38.815Z,93.40
2018-05-14T02:15:06.440Z,93.40
2018-05-14T02:17:34.061Z,93.70
2018-05-14T02:20:01.659Z,93.40
2018-05-14T02:22:29.451Z,93.60
2018-05-14T02:24:57.064Z,93.60
2018-05-14T02:27:25.777Z,93.40
2018-05-14T02:29:53.403Z,93.40
2018-05-14T02:32:21.027Z,93.60
2018-05-14T02:34:48.614Z,93.60
2018-05-14T02:37:16.985Z,93.90
2018-05-14T02:39:45.346Z,93.60
2018-05-14T02:42:13.669Z,93.60
2018-05-14T02:44:41.301Z,93.60
2018-05-14T02:47:09.699Z,93.90
2018-05-14T02:49:37.279Z,93.90
2018-05-14T02:52:04.900Z,94.10
2018-05-14T02:54:33.285Z,93.60
2018-05-14T02:57:01.730Z,93.70
2018-05-14T02:59:29.290Z,93.70
2018-05-14T03:01:56.847Z,93.90
2018-05-14T03:04:24.678Z,94.00
2018-05-14T03:06:52.299Z,93.90
2018-05-14T03:09:19.913Z,93.90
2018-05-14T03:11:47.570Z,94.00
2018-05-14T03:14:15.194Z,93.90
2018-05-14T03:16:42.839Z,94.10
2018-05-14T03:19:10.479Z,94.00
2018-05-14T03:21:38.086Z,94.10
2018-05-14T03:24:05.691Z,94.20
2018-05-14T03:26:33.297Z,94.10
2018-05-14T03:29:01.706Z,94.10
2018-05-14T03:31:29.300Z,94.10
2018-05-14T03:33:56.925Z,94.20
2018-05-14T03:36:24.511Z,94.30
2018-05-14T03:38:52.143Z,94.30
2018-05-14T03:41:19.716Z,94.30
2018-05-14T03:43:47.338Z,94.10
2018-05-14T03:46:15.682Z,94.10
2018-05-14T03:48:43.312Z,94.10
2018-05-14T03:51:10.956Z,94.20
2018-05-14T03:53:38.572Z,94.20
2018-05-14T03:56:06.203Z,94.50
2018-05-14T03:58:45.886Z,94.20
2018-05-14T04:01:16.356Z,94.30
2018-05-14T04:03:55.928Z,94.00
2018-05-14T04:06:37.608Z,93.90
2018-05-14T04:09:06.157Z,93.90
2018-05-14T04:11:34.565Z,94.00
2018-05-14T04:14:02.128Z,93.90
2018-05-14T04:16:29.797Z,94.10
2018-05-14T04:18:58.164Z,94.40
2018-05-14T04:21:25.769Z,94.40
2018-05-14T04:23:53.420Z,93.90
2018-05-14T04:26:21.444Z,94.00
2018-05-14T04:28:49.060Z,93.80
2018-05-14T04:31:16.668Z,93.30
2018-05-14T04:33:44.319Z,92.90
2018-05-14T04:36:11.963Z,92.80
2018-05-14T04:38:40.338Z,92.40
2018-05-14T04:41:08.738Z,92.00
2018-05-14T04:43:36.367Z,92.00
2018-05-14T04:46:03.978Z,91.80
2018-05-14T04:48:31.603Z,91.20
2018-05-14T04:50:59.958Z,89.90
2018-05-14T04:53:27.599Z,89.90
2018-05-14T04:55:55.218Z,88.50
2018-05-14T04:58:23.577Z,85.00
2018-05-14T05:00:51.171Z,85.00
2018-05-14T05:03:18.816Z,84.10
2018-05-14T05:05:47.183Z,84.00
2018-05-14T05:08:15.559Z,84.40
2018-05-14T05:10:43.929Z,86.40
2018-05-14T05:13:11.528Z,86.40
2018-05-14T05:15:39.149Z,87.70
2018-05-14T05:18:06.776Z,88.40
2018-05-14T05:20:34.430Z,89.00
2018-05-14T05:23:02.099Z,89.60
2018-05-14T05:25:29.737Z,90.00
2018-05-14T05:27:57.322Z,90.20
2018-05-14T05:30:24.918Z,90.10
2018-05-14T05:32:52.531Z,90.10
2018-05-14T05:35:20.140Z,90.00
2018-05-14T05:37:47.761Z,90.20
2018-05-14T05:40:15.544Z,90.70
2018-05-14T05:42:43.154Z,89.90
2018-05-14T05:45:11.607Z,89.60
2018-05-14T05:47:39.172Z,89.60
2018-05-14T05:50:06.853Z,88.50
2018-05-14T05:52:34.502Z,87.70
2018-05-14T05:55:02.903Z,87.90
2018-05-14T05:57:30.515Z,87.90
2018-05-14T05:59:58.125Z,86.80
2018-05-14T06:02:25.735Z,85.80
2018-05-14T06:04:53.361Z,85.40
2018-05-14T06:07:20.984Z,83.60
2018-05-14T06:09:48.604Z,82.10
2018-05-14T06:12:16.221Z,81.20
2018-05-14T06:14:43.835Z,82.00
2018-05-14T06:17:11.469Z,79.20
2018-05-14T06:19:39.134Z,78.00
2018-05-14T06:22:06.695Z,76.00
2018-05-14T06:24:34.261Z,74.20
2018-05-14T06:27:01.858Z,73.40
2018-05-14T06:29:29.479Z,73.90
2018-05-14T06:31:57.254Z,73.00
2018-05-14T06:34:24.879Z,71.40
2018-05-14T06:36:52.485Z,70.70
2018-05-14T06:39:20.433Z,70.90
2018-05-14T06:41:49.063Z,69.40
2018-05-14T06:44:17.432Z,70.00
2018-05-14T06:46:45.064Z,69.40
2018-05-14T06:49:12.680Z,70.00
2018-05-14T06:51:41.060Z,69.20
2018-05-14T06:54:09.444Z,68.20
2018-05-14T06:56:37.018Z,68.10
2018-05-14T06:59:04.656Z,66.60
2018-05-14T07:01:33.060Z,66.70
2018-05-14T07:04:00.676Z,66.70
2018-05-14T07:06:28.292Z,66.70
2018-05-14T07:08:55.939Z,65.60
2018-05-14T07:11:24.161Z,66.80
2018-05-14T07:13:51.894Z,65.70
2018-05-14T07:16:19.596Z,67.30
2018-05-14T07:18:47.251Z,64.90
2018-05-14T07:21:14.882Z,64.80
2018-05-14T07:23:42.467Z,65.00
2018-05-14T07:26:10.068Z,62.70
2018-05-14T07:28:38.456Z,62.70
2018-05-14T07:31:06.150Z,62.70
2018-05-14T07:33:33.768Z,62.10
2018-05-14T07:36:02.126Z,61.50
2018-05-14T07:38:29.717Z,61.40
2018-05-14T07:40:57.345Z,60.90
2018-05-14T07:43:24.976Z,60.00
2018-05-14T07:45:52.578Z,59.50
2018-05-14T07:48:20.194Z,58.80
2018-05-14T07:50:47.818Z,58.40
2018-05-14T07:53:16.206Z,58.30
2018-05-14T07:55:43.858Z,58.30
2018-05-14T07:58:11.646Z,58.00
2018-05-14T08:00:39.239Z,57.70
2018-05-14T08:03:06.881Z,56.40
2018-05-14T08:05:34.575Z,57.00
2018-05-14T08:08:02.120Z,56.70
2018-05-14T08:10:29.732Z,56.70
2018-05-14T08:12:57.355Z,56.90
2018-05-14T08:15:24.988Z,55.80
2018-05-14T08:17:52.652Z,55.50
2018-05-14T08:20:20.281Z,55.30
2018-05-14T08:22:48.633Z,56.30
2018-05-14T08:25:16.191Z,56.20
2018-05-14T08:27:43.815Z,56.40
2018-05-14T08:30:11.388Z,55.50
2018-05-14T08:32:39.021Z,56.40
2018-05-14T08:35:06.629Z,54.80
2018-05-14T08:37:34.214Z,55.40
2018-05-14T08:40:02.589Z,55.50
2018-05-14T08:42:31.084Z,55.70
2018-05-14T08:44:58.641Z,56.20
2018-05-14T08:47:26.211Z,55.90
2018-05-14T08:49:53.848Z,56.00
2018-05-14T08:52:22.241Z,55.50
2018-05-14T08:54:49.851Z,55.50
2018-05-14T08:57:17.427Z,54.20
2018-05-14T08:59:45.059Z,54.60
2018-05-14T09:02:12.665Z,54.50
2018-05-14T09:04:41.002Z,54.60
2018-05-14T09:07:08.612Z,54.50
2018-05-14T09:09:36.956Z,54.90
2018-05-14T09:12:06.029Z,55.40
2018-05-14T09:14:33.819Z,55.40
2018-05-14T09:17:01.437Z,56.00
2018-05-14T09:19:29.046Z,53.60
2018-05-14T09:21:56.661Z,53.30
2018-05-14T09:24:24.233Z,52.40
2018-05-14T09:26:51.822Z,51.70
2018-05-14T09:29:19.435Z,50.30
2018-05-14T09:31:47.021Z,52.30
2018-05-14T09:34:14.630Z,50.90
2018-05-14T09:36:43.000Z,51.10
2018-05-14T09:39:11.387Z,50.60
2018-05-14T09:41:39.763Z,51.50
2018-05-14T09:44:08.145Z,51.10
2018-05-14T09:46:36.496Z,51.30
2018-05-14T09:49:04.109Z,51.30
2018-05-14T09:51:31.721Z,50.30
2018-05-14T09:53:59.347Z,49.60
2018-05-14T09:56:26.970Z,50.10
2018-05-14T09:58:55.394Z,52.10
2018-05-14T10:01:23.001Z,52.00
2018-05-14T10:03:50.597Z,49.70
2018-05-14T10:06:18.206Z,50.00
2018-05-14T10:08:45.855Z,47.60
2018-05-14T10:11:13.453Z,46.70
2018-05-14T10:13:41.845Z,45.00
2018-05-14T10:16:09.425Z,45.00
2018-05-14T10:18:37.064Z,45.40
2018-05-14T10:21:04.637Z,46.10
2018-05-14T10:23:32.198Z,45.40
2018-05-14T10:25:59.805Z,46.00
2018-05-14T10:28:29.129Z,44.80
2018-05-14T10:30:57.491Z,44.40
2018-05-14T10:33:25.090Z,43.80
2018-05-14T10:35:52.725Z,44.50
2018-05-14T10:38:21.089Z,44.40
2018-05-14T10:40:48.743Z,44.40
2018-05-14T10:43:16.388Z,44.10
2018-05-14T10:45:44.007Z,44.60
2018-05-14T10:48:12.381Z,44.60
2018-05-14T10:50:39.977Z,44.60
2018-05-14T10:53:07.593Z,45.50
2018-05-14T10:55:35.955Z,45.60
2018-05-14T10:58:03.566Z,45.50
2018-05-14T11:00:31.177Z,45.50
2018-05-14T11:02:58.787Z,45.30
2018-05-14T11:05:26.417Z,45.00
2018-05-14T11:07:54.734Z,43.60
2018-05-14T11:10:23.123Z,43.60
2018-05-14T11:12:50.733Z,43.20
2018-05-14T11:15:18.363Z,42.90
2018-05-14T11:17:45.958Z,42.70
2018-05-14T11:20:14.342Z,42.60
2018-05-14T11:22:41.949Z,42.60
2018-05-14T11:25:09.537Z,42.60
2018-05-14T11:27:37.193Z,42.00
2018-05-14T11:30:04.747Z,43.70
2018-05-14T11:32:32.371Z,40.40
2018-05-14T11:34:59.931Z,41.40
2018-05-14T11:37:27.521Z,40.80
2018-05-14T11:39:55.115Z,40.90
2018-05-14T11:42:23.517Z,39.50
2018-05-14T11:44:51.139Z,39.40
2018-05-14T11:47:25.891Z,36.90
2018-05-14T11:49:54.277Z,33.70
2018-05-14T11:52:21.873Z,33.60
2018-05-14T11:54:49.465Z,33.70
2018-05-14T11:57:17.119Z,34.50
2018-05-14T11:59:44.727Z,36.70
2018-05-14T12:02:12.313Z,39.00
2018-05-14T12:04:48.445Z,40.30
2018-05-14T12:07:16.067Z,43.10
2018-05-14T12:09:43.676Z,43.80
2018-05-14T12:12:11.361Z,45.00
2018-05-14T12:14:39.621Z,44.30
2018-05-14T12:17:07.225Z,44.30
2018-05-14T12:19:34.819Z,43.00
2018-05-14T12:22:03.203Z,42.40
2018-05-14T12:24:30.844Z,42.40
2018-05-14T12:26:59.196Z,43.40
2018-05-14T12:29:26.752Z,42.80
2018-05-14T12:31:54.357Z,41.30
2018-05-14T12:34:21.936Z,41.90
2018-05-14T12:36:49.555Z,41.10
2018-05-14T12:39:17.181Z,40.50
2018-05-14T12:41:44.787Z,47.90
2018-05-14T12:44:13.133Z,51.90
2018-05-14T12:46:40.763Z,51.40
2018-05-14T12:49:08.377Z,50.30
2018-05-14T12:51:35.991Z,51.70
2018-05-14T12:54:03.595Z,49.20
2018-05-14T12:56:31.245Z,47.80
2018-05-14T12:58:58.846Z,47.80
2018-05-14T13:01:26.447Z,47.90
2018-05-14T13:03:54.054Z,46.30
2018-05-14T13:06:22.457Z,44.70
2018-05-14T13:08:51.136Z,40.90
2018-05-14T13:11:19.489Z,40.50
2018-05-14T13:13:47.891Z,37.30
2018-05-14T13:16:15.501Z,37.20
2018-05-14T13:18:43.127Z,34.90
2018-05-14T13:21:10.727Z,35.00
2018-05-14T13:23:38.319Z,29.00
2018-05-14T13:26:06.693Z,28.40
2018-05-14T13:28:34.300Z,28.00
2018-05-14T13:31:01.920Z,28.40
2018-05-14T13:33:29.486Z,27.50
2018-05-14T13:35:57.897Z,26.40
2018-05-14T13:38:25.536Z,26.30
2018-05-14T13:40:53.136Z,26.50
2018-05-14T13:43:20.767Z,26.80
2018-05-14T13:45:48.420Z,26.00
2018-05-14T13:48:15.964Z,26.20
2018-05-14T13:50:44.358Z,25.90
2018-05-14T13:53:11.986Z,25.90
2018-05-14T13:55:39.614Z,27.40
2018-05-14T13:58:07.237Z,27.40
2018-05-14T14:00:35.632Z,26.20
2018-05-14T14:03:03.319Z,26.20
2018-05-14T14:05:30.870Z,26.30
2018-05-14T14:07:58.505Z,25.10
2018-05-14T14:10:26.132Z,25.10
2018-05-14T14:12:53.754Z,24.00
2018-05-14T14:15:21.349Z,24.10
2018-05-14T14:17:48.949Z,23.40
2018-05-14T14:20:16.562Z,23.90
2018-05-14T14:22:44.150Z,24.30
2018-05-14T14:25:12.568Z,23.40
2018-05-14T14:27:40.201Z,23.40
2018-05-14T14:30:08.558Z,24.90
2018-05-14T14:32:36.170Z,24.90
2018-05-14T14:35:04.053Z,26.40
2018-05-14T14:37:31.634Z,26.20
2018-05-14T14:39:59.242Z,32.30
2018-05-14T14:42:26.841Z,34.50
2018-05-14T14:44:54.424Z,34.10
2018-05-14T14:47:22.049Z,33.90
2018-05-14T14:49:49.672Z,34.00
2018-05-14T14:52:18.039Z,37.40
2018-05-14T14:54:46.392Z,38.30
2018-05-14T14:57:13.966Z,38.20
2018-05-14T14:59:41.568Z,38.00
2018-05-14T15:02:09.941Z,38.30
2018-05-14T15:04:37.512Z,38.20
2018-05-14T15:07:05.137Z,38.40
2018-05-14T15:09:32.690Z,39.70
2018-05-14T15:12:00.276Z,40.60
2018-05-14T15:14:27.878Z,41.00
2018-05-14T15:16:55.496Z,42.30
2018-05-14T15:19:23.076Z,44.60
2018-05-14T15:21:50.732Z,44.90
2018-05-14T15:24:18.414Z,46.80
2018-05-14T15:26:46.039Z,47.40
2018-05-14T15:29:13.654Z,47.60
2018-05-14T15:31:41.284Z,48.40
2018-05-14T15:34:08.877Z,46.80
2018-05-14T15:36:36.483Z,46.30
2018-05-14T15:39:04.826Z,46.60
2018-05-14T15:41:32.421Z,46.60
2018-05-14T15:44:00.046Z,46.40
2018-05-14T15:46:28.425Z,46.40
2018-05-14T15:48:56.809Z,46.80
2018-05-14T15:51:24.388Z,46.90
2018-05-14T15:53:52.784Z,48.60
2018-05-14T15:56:20.455Z,48.60
2018-05-14T15:58:47.981Z,48.30
2018-05-14T16:01:15.549Z,50.10
2018-05-14T16:03:43.924Z,50.90
2018-05-14T16:06:11.506Z,50.90
2018-05-14T16:08:39.123Z,51.60
2018-05-14T16:11:06.722Z,51.70
2018-05-14T16:13:34.418Z,50.40
2018-05-14T16:16:02.049Z,50.80
2018-05-14T16:18:29.664Z,50.60
2018-05-14T16:20:57.286Z,50.90
2018-05-14T16:23:24.859Z,50.50
2018-05-14T16:25:52.493Z,50.90
2018-05-14T16:28:20.137Z,51.00
2018-05-14T16:30:49.054Z,50.30
2018-05-14T16:33:16.678Z,50.20
2018-05-14T16:35:44.225Z,49.40
2018-05-14T16:38:11.866Z,50.40
2018-05-14T16:40:39.457Z,50.90
2018-05-14T16:43:07.134Z,50.40
2018-05-14T16:45:35.569Z,52.80
2018-05-14T16:48:03.176Z,52.80
2018-05-14T16:50:31.577Z,54.00
2018-05-14T16:52:59.200Z,53.90
2018-05-14T16:55:26.815Z,52.60
2018-05-14T16:57:54.470Z,54.00
2018-05-14T17:00:22.266Z,53.90
2018-05-14T17:02:50.046Z,53.00
2018-05-14T17:05:17.695Z,54.20
2018-05-14T17:07:45.327Z,54.20
2018-05-14T17:10:13.394Z,54.70
2018-05-14T17:12:41.502Z,55.20
2018-05-14T17:15:09.863Z,55.10
2018-05-14T17:17:37.438Z,55.10
2018-05-14T17:20:08.764Z,54.70
2018-05-14T17:22:36.417Z,53.90
2018-05-14T17:25:04.027Z,55.30
2018-05-14T17:27:31.632Z,54.60
2018-05-14T17:29:59.230Z,54.50
2018-05-14T17:32:27.075Z,53.50
2018-05-14T17:34:54.720Z,53.10
2018-05-14T17:37:22.312Z,55.30
2018-05-14T17:39:49.970Z,56.00
2018-05-14T17:42:17.589Z,56.60
2018-05-14T17:44:45.362Z,56.60
2018-05-14T17:47:12.964Z,56.80
2018-05-14T17:49:40.582Z,57.30
2018-05-14T17:52:08.162Z,57.70
2018-05-14T17:54:35.936Z,58.50
2018-05-14T17:57:03.558Z,58.80
2018-05-14T17:59:31.963Z,59.10
2018-05-14T18:01:59.554Z,59.10
2018-05-14T18:04:27.178Z,59.10
2018-05-14T18:06:54.828Z,59.70
2018-05-14T18:09:30.495Z,59.90
2018-05-14T18:12:00.053Z,61.30
2018-05-14T18:14:27.688Z,61.30
2018-05-14T18:16:55.283Z,61.90
2018-05-14T18:19:23.640Z,48.60
2018-05-14T18:21:51.233Z,48.60
2018-05-14T18:24:19.606Z,47.50
2018-05-14T18:26:48.661Z,47.60
2018-05-14T18:29:22.028Z,47.50
2018-05-14T18:31:55.427Z,48.60
2018-05-14T18:34:28.598Z,51.30
2018-05-14T18:36:56.198Z,54.00
2018-05-14T18:39:29.492Z,56.30
2018-05-14T18:41:57.159Z,57.60
2018-05-14T18:44:30.364Z,59.10
2018-05-14T18:46:57.950Z,59.70
2018-05-14T18:49:26.395Z,62.40
2018-05-14T18:51:55.437Z,62.50
2018-05-14T18:54:27.923Z,62.40
2018-05-14T18:56:55.521Z,62.20
2018-05-14T18:59:23.101Z,62.20
2018-05-14T19:01:50.714Z,63.20
2018-05-14T19:04:18.320Z,63.50
2018-05-14T19:06:47.437Z,65.00
2018-05-14T19:09:15.819Z,65.00
2018-05-14T19:11:49.910Z,65.50
2018-05-14T19:14:17.564Z,65.50
2018-05-14T19:16:50.870Z,64.00
2018-05-14T19:19:18.461Z,63.10
2018-05-14T19:21:46.851Z,58.20
2018-05-14T19:24:16.465Z,58.20
2018-05-14T19:26:44.091Z,57.50
2018-05-14T19:29:18.141Z,55.80
2018-05-14T19:31:46.498Z,56.20
2018-05-14T19:34:19.775Z,55.60
2018-05-14T19:36:47.421Z,55.70
2018-05-14T19:39:22.689Z,56.00
2018-05-14T19:41:51.051Z,56.60
2018-05-14T19:44:18.652Z,57.20
2018-05-14T19:46:46.215Z,56.90
2018-05-14T19:49:13.893Z,58.40
2018-05-14T19:51:41.491Z,59.50
2018-05-14T19:54:09.108Z,59.40
2018-05-14T19:56:36.742Z,59.30
2018-05-14T19:59:04.337Z,59.60
2018-05-14T20:01:32.008Z,59.30
2018-05-14T20:03:59.607Z,59.40
2018-05-14T20:06:27.998Z,60.90
2018-05-14T20:08:55.577Z,60.80
2018-05-14T20:11:23.215Z,61.00
2018-05-14T20:13:50.834Z,61.70
2018-05-14T20:16:18.453Z,62.20
2018-05-14T20:22:05.064Z,62.70
2018-05-14T20:24:33.425Z,62.70
2018-05-14T20:27:13.640Z,62.60
2018-05-14T20:29:45.980Z,63.00
2018-05-14T20:32:13.598Z,63.20
2018-05-14T20:37:41.305Z,64.80
2018-05-14T20:40:09.656Z,64.80
2018-05-14T20:42:37.264Z,64.60
2018-05-14T20:45:04.884Z,64.80
2018-05-14T20:56:33.327Z,59.50
2018-05-14T20:59:00.860Z,54.30
2018-05-14T21:01:29.425Z,53.90
2018-05-14T21:03:56.977Z,52.30
2018-05-14T21:06:25.435Z,51.70
2018-05-14T21:09:05.920Z,51.80
2018-05-14T21:11:33.437Z,51.70
2018-05-14T21:14:00.986Z,52.10
2018-05-14T21:16:28.521Z,52.00
2018-05-14T21:18:56.144Z,51.70
2018-05-14T21:21:24.438Z,51.70
2018-05-14T21:23:51.995Z,51.70
2018-05-14T21:26:19.636Z,51.70
2018-05-14T21:28:47.259Z,51.80
2018-05-14T21:31:14.909Z,51.70
2018-05-14T21:33:42.519Z,52.00
2018-05-14T21:36:10.122Z,52.00
2018-05-14T21:38:37.710Z,52.10
2018-05-14T21:41:05.353Z,52.30
2018-05-14T21:43:32.974Z,52.60
2018-05-14T21:46:00.635Z,52.60
2018-05-14T21:48:28.246Z,52.50
2018-05-14T21:50:55.880Z,52.80
2018-05-14T21:53:23.492Z,53.10
2018-05-14T21:55:51.113Z,57.20
2018-05-14T21:58:18.746Z,59.10
2018-05-14T22:00:46.363Z,60.40
2018-05-14T22:03:13.958Z,61.40
2018-05-14T22:05:50.536Z,61.60
2018-05-14T22:08:18.227Z,60.20
2018-05-14T22:10:45.843Z,58.60
2018-05-14T22:13:14.250Z,57.60
2018-05-14T22:15:41.847Z,57.50
2018-05-14T22:18:09.476Z,56.80
2018-05-14T22:20:37.838Z,56.50
2018-05-14T22:23:05.528Z,56.50
2018-05-14T22:25:33.188Z,56.30
2018-05-14T22:28:00.816Z,56.00
2018-05-14T22:30:28.424Z,56.00
2018-05-14T22:32:56.052Z,56.10
2018-05-14T22:35:23.716Z,56.30
2018-05-14T22:37:51.267Z,56.50
2018-05-14T22:40:18.878Z,56.30
2018-05-14T22:42:46.538Z,56.80
2018-05-14T22:45:14.147Z,57.00
2018-05-14T22:47:41.771Z,57.00
2018-05-14T22:50:09.365Z,57.10
2018-05-14T22:52:37.755Z,57.60
2018-05-14T22:55:05.314Z,57.40
2018-05-14T22:57:36.947Z,57.50
2018-05-14T23:00:05.353Z,57.70
2018-05-14T23:02:32.949Z,57.70
2018-05-14T23:05:00.518Z,57.90
2018-05-14T23:07:28.159Z,58.00
2018-05-14T23:09:55.785Z,58.20
2018-05-14T23:12:23.396Z,58.30
2018-05-14T23:14:51.021Z,58.40
2018-05-14T23:17:18.577Z,58.60
2018-05-14T23:19:46.181Z,58.70
2018-05-14T23:22:16.579Z,58.90
2018-05-14T23:24:44.192Z,59.00
2018-05-14T23:27:12.581Z,59.30
2018-05-14T23:29:40.991Z,59.40
2018-05-14T23:32:08.601Z,59.40
2018-05-14T23:34:37.705Z,59.50
2018-05-14T23:37:05.316Z,59.50
2018-05-14T23:39:32.930Z,60.10
2018-05-14T23:42:01.299Z,60.00
2018-05-14T23:44:28.906Z,60.00
2018-05-14T23:46:56.490Z,60.10
2018-05-14T23:49:24.096Z,60.10
